LIMF/TRN METAR and TAF weather

Enter ICAO airport designator
Station Type Date Time Source
LIMF METAR 2020/04/03 07:20 UTC NOAA

LIMF 030720Z VRB01KT 8000 NSC 08/02 Q1013


Station Type Date Time Source
LIMF Decoded METAR 2020/04/03 07:20 UTC NOAA

Torino / Caselle, Italy (LIMF) 45-13N 007-39E 287M
Apr 03, 2020 - 03:20 AM EDT / 2020.04.03 0720 UTC
Wind: Variable at 1 MPH (1 KT):0
Visibility: 4 mile(s):0
Temperature: 46 F (8 C)
Dew Point: 35 F (2 C)
Relative Humidity: 65%
Pressure (altimeter): 29.91 in. Hg (1013 hPa)
ob: LIMF 030720Z VRB01KT 8000 NSC 08/02 Q1013
cycle: 7

Station Type Date Time Source
LIMF TAF 2020/04/03 06:21 UTC NOAA

TAF LIMF 030500Z 0306/0406 VRB05KT CAVOK

Example: see airport list